createdAt,value
2018-03-27T00:01:32.561Z,62.57
2018-03-27T00:04:00.120Z,61.53
2018-03-27T00:06:28.768Z,65.17
2018-03-27T00:08:56.391Z,64.50
2018-03-27T00:11:23.931Z,65.43
2018-03-27T00:13:51.515Z,65.30
2018-03-27T00:16:19.060Z,62.53
2018-03-27T00:18:46.619Z,61.97
2018-03-27T00:21:30.809Z,63.30
2018-03-27T00:26:34.040Z,60.37
2018-03-27T00:29:14.183Z,63.97
2018-03-27T00:31:53.576Z,60.73
2018-03-27T00:34:33.036Z,61.60
2018-03-27T00:37:12.780Z,61.20
2018-03-27T00:39:52.031Z,59.13
2018-03-27T00:42:40.328Z,61.95
2018-03-27T00:45:07.877Z,60.50
2018-03-27T00:47:36.179Z,62.10
2018-03-27T00:50:03.760Z,61.00
2018-03-27T00:52:31.305Z,59.23
2018-03-27T00:54:58.920Z,61.73
2018-03-27T00:57:28.300Z,61.60
2018-03-27T00:59:55.844Z,62.03
2018-03-27T01:02:23.402Z,57.90
2018-03-27T01:04:50.975Z,60.57
2018-03-27T01:07:18.584Z,61.10
2018-03-27T01:09:46.895Z,60.10
2018-03-27T01:12:16.340Z,58.70
2018-03-27T01:14:43.888Z,59.60
2018-03-27T01:17:11.433Z,62.28
2018-03-27T01:19:39.204Z,59.83
2018-03-27T01:22:06.756Z,61.90
2018-03-27T01:24:34.300Z,59.53
2018-03-27T01:27:01.903Z,61.33
2018-03-27T01:29:29.451Z,60.33
2018-03-27T01:31:57.007Z,60.77
2018-03-27T01:34:24.580Z,59.05
2018-03-27T01:36:52.132Z,61.13
2018-03-27T01:39:19.680Z,58.10
2018-03-27T01:41:47.684Z,58.47
2018-03-27T01:44:17.272Z,60.00
2018-03-27T01:46:44.812Z,58.23
2018-03-27T01:49:12.419Z,61.17
2018-03-27T01:51:39.971Z,59.77
2018-03-27T01:54:07.511Z,57.22
2018-03-27T01:56:35.092Z,59.70
2018-03-27T01:59:02.920Z,62.00
2018-03-27T02:01:30.468Z,62.20
2018-03-27T02:03:59.106Z,60.77
2018-03-27T02:06:26.652Z,60.22
2018-03-27T02:08:54.196Z,59.57
2018-03-27T02:11:27.384Z,59.40
2018-03-27T02:14:00.612Z,56.60
2018-03-27T02:16:33.739Z,60.80
2018-03-27T02:19:06.834Z,61.70
2018-03-27T02:21:34.652Z,58.97
2018-03-27T02:24:03.699Z,59.20
2018-03-27T02:26:31.307Z,61.20
2018-03-27T02:28:58.900Z,60.30
2018-03-27T02:31:27.270Z,60.93
2018-03-27T02:33:54.809Z,57.47
2018-03-27T02:36:22.413Z,56.95
2018-03-27T02:38:49.972Z,61.07
2018-03-27T02:41:18.357Z,56.92
2018-03-27T02:43:47.304Z,57.77
2018-03-27T02:46:15.608Z,56.72
2018-03-27T02:48:43.166Z,60.00
2018-03-27T02:51:14.568Z,61.00
2018-03-27T02:53:42.126Z,60.37
2018-03-27T02:56:09.677Z,60.87
2018-03-27T02:58:37.264Z,56.73
2018-03-27T03:01:05.143Z,63.10
2018-03-27T03:03:32.695Z,60.97
2018-03-27T03:06:00.871Z,62.27
2018-03-27T03:08:28.420Z,61.20
2018-03-27T03:10:55.984Z,64.00
2018-03-27T03:13:23.568Z,60.50
2018-03-27T03:15:51.155Z,65.47
2018-03-27T03:18:18.712Z,65.27
2018-03-27T03:20:46.288Z,62.23
2018-03-27T03:23:26.672Z,63.42
2018-03-27T03:28:30.140Z,63.40
2018-03-27T03:30:57.735Z,67.57
2018-03-27T03:33:25.328Z,65.60
2018-03-27T03:35:52.895Z,65.70
2018-03-27T03:38:20.436Z,62.97
2018-03-27T03:40:48.020Z,62.60
2018-03-27T03:43:17.322Z,64.65
2018-03-27T03:45:44.949Z,61.43
2018-03-27T03:48:12.522Z,60.20
2018-03-27T03:50:40.605Z,63.30
2018-03-27T03:53:08.188Z,61.90
2018-03-27T03:55:35.712Z,60.93
2018-03-27T03:58:03.283Z,62.87
2018-03-27T04:00:30.903Z,62.25
2018-03-27T04:02:59.383Z,60.72
2018-03-27T04:05:26.970Z,63.17
2018-03-27T04:07:54.530Z,61.75
2018-03-27T04:10:22.076Z,64.20
2018-03-27T04:12:49.960Z,64.57
2018-03-27T04:15:17.503Z,63.83
2018-03-27T04:17:45.044Z,65.70
2018-03-27T04:20:12.608Z,61.33
2018-03-27T04:22:40.151Z,61.30
2018-03-27T04:25:07.776Z,65.67
2018-03-27T04:27:35.347Z,67.43
2018-03-27T04:30:02.891Z,67.17
2018-03-27T04:32:30.422Z,69.37
2018-03-27T04:34:58.524Z,65.13
2018-03-27T04:37:26.068Z,68.33
2018-03-27T04:39:53.604Z,69.27
2018-03-27T04:42:21.184Z,66.87
2018-03-27T04:44:48.783Z,73.90
2018-03-27T04:47:16.468Z,69.00
2018-03-27T04:49:44.804Z,72.17
2018-03-27T04:52:12.341Z,69.80
2018-03-27T04:54:39.876Z,72.50
2018-03-27T04:57:07.487Z,70.50
2018-03-27T04:59:35.039Z,68.17
2018-03-27T05:02:02.575Z,68.50
2018-03-27T05:04:30.768Z,72.77
2018-03-27T05:06:58.321Z,71.83
2018-03-27T05:09:25.909Z,68.40
2018-03-27T05:11:53.477Z,69.63
2018-03-27T05:14:21.020Z,71.00
2018-03-27T05:16:48.560Z,70.47
2018-03-27T05:19:16.944Z,66.85
2018-03-27T05:21:44.500Z,62.70
2018-03-27T05:24:12.043Z,64.33
2018-03-27T05:26:39.612Z,65.37
2018-03-27T05:29:07.196Z,68.23
2018-03-27T05:31:34.741Z,66.63
2018-03-27T05:34:02.328Z,68.07
2018-03-27T05:36:29.859Z,65.05
2018-03-27T05:38:57.402Z,67.73
2018-03-27T05:41:25.486Z,66.50
2018-03-27T05:43:53.028Z,68.07
2018-03-27T05:46:20.682Z,64.57
2018-03-27T05:48:49.028Z,72.27
2018-03-27T05:51:16.619Z,67.00
2018-03-27T05:53:44.946Z,70.07
2018-03-27T05:56:12.564Z,69.80
2018-03-27T05:58:40.872Z,67.63
2018-03-27T06:01:08.410Z,65.00
2018-03-27T06:03:36.221Z,64.03
2018-03-27T06:06:04.009Z,65.63
2018-03-27T06:08:32.326Z,62.97
2018-03-27T06:10:59.900Z,62.23
2018-03-27T06:13:27.444Z,60.95
2018-03-27T06:15:55.004Z,63.90
2018-03-27T06:18:22.579Z,63.73
2018-03-27T06:20:50.621Z,63.90
2018-03-27T06:23:18.921Z,64.50
2018-03-27T06:25:47.947Z,67.60
2018-03-27T06:28:16.473Z,63.70
2018-03-27T06:30:44.768Z,67.90
2018-03-27T06:33:12.332Z,66.20
2018-03-27T06:35:39.872Z,68.20
2018-03-27T06:38:08.178Z,63.40
2018-03-27T06:40:35.759Z,63.60
2018-03-27T06:43:03.320Z,63.60
2018-03-27T06:45:30.980Z,61.97
2018-03-27T06:47:58.673Z,66.50
2018-03-27T06:50:26.217Z,65.00
2018-03-27T06:52:53.817Z,62.37
2018-03-27T06:55:21.372Z,62.30
2018-03-27T06:57:49.684Z,62.20
2018-03-27T07:00:17.269Z,67.27
2018-03-27T07:05:18.483Z,68.00
2018-03-27T07:07:46.981Z,71.27
2018-03-27T07:10:15.690Z,65.78
2018-03-27T07:12:43.279Z,69.77
2018-03-27T07:15:10.827Z,71.00
2018-03-27T07:17:38.405Z,66.93
2018-03-27T07:23:02.614Z,67.57
2018-03-27T07:25:30.209Z,67.90
2018-03-27T07:27:57.778Z,72.27
2018-03-27T07:30:27.397Z,74.53
2018-03-27T07:35:27.972Z,69.80
2018-03-27T07:37:55.569Z,71.03
2018-03-27T07:40:23.819Z,73.95
2018-03-27T07:42:51.394Z,74.17
2018-03-27T07:45:18.968Z,72.00
2018-03-27T07:47:46.630Z,73.03
2018-03-27T07:50:28.541Z,69.53
2018-03-27T08:02:26.465Z,59.17
2018-03-27T08:04:54.029Z,62.30
2018-03-27T08:07:21.696Z,62.58
2018-03-27T08:09:49.584Z,62.83
2018-03-27T08:12:17.904Z,61.10
2018-03-27T08:14:45.477Z,62.97
2018-03-27T10:49:46.703Z,39.40
2018-03-27T10:52:26.529Z,38.65
2018-03-27T10:57:27.876Z,35.77
2018-03-27T10:59:55.426Z,38.30
2018-03-27T11:02:22.964Z,36.30
2018-03-27T11:04:51.348Z,33.58
2018-03-27T11:07:18.888Z,33.70
2018-03-27T11:09:46.431Z,36.73
2018-03-27T11:12:16.336Z,35.83
2018-03-27T11:14:43.892Z,36.23
2018-03-27T11:17:11.432Z,38.10
2018-03-27T11:19:38.992Z,38.77
2018-03-27T11:22:06.556Z,37.53
2018-03-27T11:24:34.109Z,37.37
2018-03-27T11:27:02.099Z,36.00
2018-03-27T11:29:29.745Z,38.87
2018-03-27T11:31:57.305Z,40.37
2018-03-27T11:34:24.911Z,39.80
2018-03-27T11:36:52.455Z,39.08
2018-03-27T11:39:20.008Z,39.63
2018-03-27T11:41:47.630Z,38.07
2018-03-27T11:44:15.595Z,38.35
2018-03-27T11:46:43.132Z,39.40
2018-03-27T11:49:11.492Z,40.17
2018-03-27T11:51:39.291Z,36.77
2018-03-27T11:54:07.400Z,36.67
2018-03-27T11:56:34.977Z,37.13
2018-03-27T11:59:02.519Z,38.15
2018-03-27T12:01:30.079Z,42.88
2018-03-27T12:03:58.571Z,40.27
2018-03-27T12:06:26.153Z,37.53
2018-03-27T12:08:53.708Z,39.73
2018-03-27T12:11:21.668Z,39.13
2018-03-27T12:13:49.217Z,36.87
2018-03-27T12:16:16.773Z,36.27
2018-03-27T12:18:44.390Z,36.20
2018-03-27T12:21:11.939Z,36.80
2018-03-27T12:23:40.243Z,36.55
2018-03-27T12:26:07.806Z,37.90
2018-03-27T12:31:13.783Z,32.28
2018-03-27T12:33:41.330Z,33.37
2018-03-27T12:36:09.969Z,36.00
2018-03-27T12:38:38.648Z,34.77
2018-03-27T12:41:09.182Z,33.63
2018-03-27T12:43:36.837Z,34.20
2018-03-27T12:46:04.408Z,35.10
2018-03-27T12:48:31.957Z,33.67
2018-03-27T12:50:59.605Z,36.50
2018-03-27T12:53:28.000Z,33.73
2018-03-27T12:55:55.549Z,33.28
2018-03-27T12:58:23.100Z,32.10
2018-03-27T13:00:50.671Z,29.73
2018-03-27T13:03:18.216Z,30.50
2018-03-27T13:05:45.774Z,27.10
2018-03-27T13:08:30.945Z,27.17
2018-03-27T13:13:31.712Z,25.70
2018-03-27T13:15:59.277Z,26.93
2018-03-27T13:18:26.820Z,30.33
2018-03-27T13:20:55.160Z,27.37
2018-03-27T13:23:23.126Z,29.10
2018-03-27T13:25:51.441Z,28.70
2018-03-27T13:28:19.901Z,32.03
2018-03-27T13:30:47.440Z,29.83
2018-03-27T13:33:16.392Z,30.20
2018-03-27T13:35:43.987Z,27.33
2018-03-27T13:38:11.547Z,26.65
2018-03-27T13:40:39.083Z,28.40
2018-03-27T13:43:06.671Z,28.67
2018-03-27T13:45:34.981Z,26.80
2018-03-27T13:48:02.550Z,28.20
2018-03-27T13:50:30.448Z,27.40
2018-03-27T13:52:57.987Z,28.10
2018-03-27T13:55:25.796Z,30.70
2018-03-27T13:57:57.372Z,32.60
2018-03-27T14:00:26.847Z,29.17
2018-03-27T14:02:55.424Z,30.07
2018-03-27T14:05:23.021Z,29.20
2018-03-27T14:07:57.365Z,29.33
2018-03-27T14:10:25.268Z,31.07
2018-03-27T14:12:52.811Z,30.17
2018-03-27T14:15:20.354Z,30.20
2018-03-27T14:17:47.932Z,29.73
2018-03-27T14:20:17.332Z,28.60
2018-03-27T14:22:45.174Z,30.00
2018-03-27T14:25:12.752Z,30.07
2018-03-27T14:27:40.295Z,28.73
2018-03-27T14:30:07.839Z,30.10
2018-03-27T14:32:35.908Z,27.83
2018-03-27T14:35:03.459Z,29.55
2018-03-27T14:37:31.013Z,29.33
2018-03-27T14:39:59.364Z,29.92
2018-03-27T14:42:26.912Z,27.23
2018-03-27T14:44:54.872Z,26.50
2018-03-27T14:47:22.448Z,26.95
2018-03-27T14:49:49.992Z,27.87
2018-03-27T14:52:17.532Z,27.50
2018-03-27T14:54:45.311Z,28.47
2018-03-27T14:57:14.003Z,27.93
2018-03-27T14:59:41.604Z,27.83
2018-03-27T15:02:09.172Z,27.63
2018-03-27T15:04:36.720Z,30.03
2018-03-27T15:07:04.259Z,31.50
2018-03-27T15:09:31.831Z,30.00
2018-03-27T15:11:59.383Z,29.20
2018-03-27T15:14:26.919Z,29.58
2018-03-27T15:16:55.060Z,30.20
2018-03-27T15:19:23.436Z,30.03
2018-03-27T15:21:51.745Z,27.73
2018-03-27T15:24:19.368Z,26.63
2018-03-27T15:26:46.980Z,28.37
2018-03-27T15:29:25.333Z,27.98
2018-03-27T15:35:04.341Z,28.67
2018-03-27T15:37:31.919Z,28.63
2018-03-27T15:39:59.499Z,29.00
2018-03-27T15:42:27.134Z,30.80
2018-03-27T15:44:54.793Z,31.40
2018-03-27T15:47:22.420Z,29.80
2018-03-27T15:49:50.068Z,28.20
2018-03-27T15:52:17.689Z,27.53
2018-03-27T15:54:45.317Z,25.63
2018-03-27T15:57:13.909Z,24.33
2018-03-27T15:59:42.152Z,26.50
2018-03-27T16:02:09.813Z,25.67
2018-03-27T16:04:37.485Z,28.45
2018-03-27T16:07:05.317Z,26.77
2018-03-27T16:09:32.966Z,26.15
2018-03-27T16:12:00.601Z,25.53
2018-03-27T16:14:28.193Z,25.70
2018-03-27T16:16:55.843Z,27.27
2018-03-27T16:19:23.521Z,29.67
2018-03-27T16:21:51.169Z,28.90
2018-03-27T16:24:18.983Z,25.30
2018-03-27T16:29:27.977Z,26.27
2018-03-27T16:31:55.697Z,25.87
2018-03-27T16:34:24.275Z,28.63
2018-03-27T16:36:52.174Z,27.90
2018-03-27T16:39:20.182Z,27.35
2018-03-27T16:41:49.831Z,27.53
2018-03-27T16:44:17.486Z,27.30
2018-03-27T16:46:45.141Z,28.23
2018-03-27T16:49:14.870Z,29.00
2018-03-27T16:51:42.785Z,28.93
2018-03-27T16:54:10.450Z,27.93
2018-03-27T16:56:38.134Z,28.47
2018-03-27T16:59:05.812Z,30.00
2018-03-27T17:01:34.512Z,30.30
2018-03-27T17:04:02.175Z,30.33
2018-03-27T17:06:29.805Z,26.70
2018-03-27T17:08:58.240Z,29.83
2018-03-27T17:11:26.053Z,29.87
2018-03-27T17:13:54.457Z,31.30
2018-03-27T17:16:22.088Z,36.33
2018-03-27T17:18:49.789Z,33.13
2018-03-27T17:21:17.327Z,32.27
2018-03-27T17:23:45.232Z,33.87
2018-03-27T17:26:12.881Z,33.53
2018-03-27T17:28:40.427Z,32.03
2018-03-27T17:31:08.006Z,32.77
2018-03-27T17:33:36.628Z,32.40
2018-03-27T17:36:04.235Z,32.20
2018-03-27T17:38:31.852Z,32.27
2018-03-27T17:40:59.421Z,30.40
2018-03-27T17:43:27.048Z,30.40
2018-03-27T17:45:54.724Z,31.58
2018-03-27T17:48:22.416Z,29.73
2018-03-27T17:50:49.980Z,29.57
2018-03-27T17:53:17.613Z,29.37
2018-03-27T17:55:45.203Z,31.17
2018-03-27T17:58:14.450Z,31.10
2018-03-27T18:00:42.027Z,28.00
2018-03-27T18:03:09.907Z,29.50
2018-03-27T18:05:37.488Z,31.83
2018-03-27T18:08:05.094Z,33.83
2018-03-27T18:10:32.881Z,34.22
2018-03-27T18:13:00.939Z,30.30
2018-03-27T18:15:36.292Z,31.87
2018-03-27T18:18:04.660Z,32.53
2018-03-27T18:20:32.213Z,31.17
2018-03-27T18:23:01.298Z,31.03
2018-03-27T18:25:28.876Z,32.10
2018-03-27T18:27:56.420Z,33.03
2018-03-27T18:30:24.357Z,33.40
2018-03-27T18:32:51.917Z,35.10
2018-03-27T18:35:20.224Z,33.95
2018-03-27T18:37:47.799Z,35.17
2018-03-27T18:40:16.387Z,33.38
2018-03-27T18:42:43.931Z,35.57
2018-03-27T18:45:11.709Z,33.95
2018-03-27T18:47:39.264Z,33.23
2018-03-27T18:50:06.895Z,35.10
2018-03-27T18:52:34.749Z,33.13
2018-03-27T18:55:02.336Z,33.17
2018-03-27T18:57:29.884Z,34.23
2018-03-27T18:59:57.502Z,40.60
2018-03-27T19:02:25.057Z,36.27
2018-03-27T19:04:53.703Z,38.87
2018-03-27T19:07:21.313Z,38.58
2018-03-27T19:09:48.866Z,36.17
2018-03-27T19:12:16.452Z,35.35
2018-03-27T19:14:44.050Z,35.63
2018-03-27T19:17:11.627Z,34.57
2018-03-27T19:19:39.186Z,37.83
2018-03-27T19:22:06.749Z,36.90
2018-03-27T19:24:34.290Z,35.67
2018-03-27T19:27:01.832Z,38.50
2018-03-27T19:29:30.168Z,35.50
2018-03-27T19:31:57.724Z,34.87
2018-03-27T19:34:25.293Z,35.00
2018-03-27T19:36:52.916Z,36.13
2018-03-27T19:39:20.488Z,34.46
2018-03-27T19:41:48.813Z,35.20
2018-03-27T19:44:16.493Z,34.70
2018-03-27T19:46:44.918Z,35.50
2018-03-27T19:49:12.520Z,35.67
2018-03-27T19:51:40.978Z,35.73
2018-03-27T19:54:08.511Z,36.20
2018-03-27T19:56:36.053Z,35.27
2018-03-27T19:59:04.143Z,36.47
2018-03-27T20:01:31.669Z,34.83
2018-03-27T20:04:00.000Z,38.17
2018-03-27T20:06:27.639Z,37.05
2018-03-27T20:08:55.186Z,37.10
2018-03-27T20:11:22.728Z,37.60
2018-03-27T20:13:51.063Z,37.37
2018-03-27T20:16:18.603Z,37.67
2018-03-27T20:18:47.047Z,36.43
2018-03-27T20:21:16.527Z,33.97
2018-03-27T20:23:44.847Z,36.00
2018-03-27T20:26:12.387Z,35.57
2018-03-27T20:28:39.964Z,35.53
2018-03-27T20:31:07.516Z,37.45
2018-03-27T20:33:35.060Z,35.60
2018-03-27T20:36:02.640Z,35.47
2018-03-27T20:38:30.188Z,34.40
2018-03-27T20:40:57.780Z,35.07
2018-03-27T20:43:25.673Z,36.40
2018-03-27T20:45:53.371Z,34.60
2018-03-27T20:48:21.694Z,34.83
2018-03-27T20:50:49.292Z,33.40
2018-03-27T20:53:16.840Z,34.40
2018-03-27T20:55:44.384Z,37.63
2018-03-27T20:58:11.952Z,36.73
2018-03-27T21:00:39.516Z,36.77
2018-03-27T21:03:07.852Z,35.30
2018-03-27T21:05:35.495Z,36.17
2018-03-27T21:08:04.005Z,37.10
2018-03-27T21:10:31.950Z,35.25
2018-03-27T21:13:00.447Z,35.25
2018-03-27T21:15:27.979Z,33.20
2018-03-27T21:17:55.516Z,33.88
2018-03-27T21:20:23.085Z,34.37
2018-03-27T21:22:50.740Z,32.60
2018-03-27T21:25:19.136Z,33.60
2018-03-27T21:27:48.377Z,32.53
2018-03-27T21:30:18.620Z,34.94
2018-03-27T21:32:46.189Z,34.13
2018-03-27T21:35:14.809Z,33.70
2018-03-27T21:37:43.126Z,30.30
2018-03-27T21:40:10.671Z,32.70
2018-03-27T21:42:39.114Z,33.70
2018-03-27T21:45:06.673Z,32.60
2018-03-27T21:47:34.220Z,30.87
2018-03-27T21:50:01.963Z,31.40
2018-03-27T21:52:29.576Z,31.62
2018-03-27T21:54:57.138Z,31.97
2018-03-27T21:57:25.384Z,30.52
2018-03-27T21:59:52.968Z,31.50
2018-03-27T22:02:21.298Z,31.38
2018-03-27T22:04:49.891Z,25.13
2018-03-27T22:07:17.440Z,26.97
2018-03-27T22:09:45.272Z,25.00
2018-03-27T22:12:15.668Z,28.07
2018-03-27T22:14:43.208Z,30.17
2018-03-27T22:17:10.764Z,29.83
2018-03-27T22:19:38.431Z,30.20
2018-03-27T22:22:05.991Z,30.97
2018-03-27T22:24:33.585Z,31.20
2018-03-27T22:27:01.201Z,29.90
2018-03-27T22:29:28.743Z,29.67
2018-03-27T22:31:56.279Z,30.30
2018-03-27T22:34:23.891Z,28.27
2018-03-27T22:36:51.427Z,28.00
2018-03-27T22:39:18.968Z,28.97
2018-03-27T22:41:46.575Z,27.75
2018-03-27T22:44:16.374Z,27.70
2018-03-27T22:46:43.940Z,28.47
2018-03-27T22:49:11.513Z,27.33
2018-03-27T22:51:39.056Z,26.67
2018-03-27T22:54:06.597Z,27.50
2018-03-27T22:56:34.487Z,26.47
2018-03-27T22:59:02.060Z,28.17
2018-03-27T23:01:29.617Z,26.87
2018-03-27T23:03:57.291Z,26.33
2018-03-27T23:06:24.833Z,28.87
2018-03-27T23:08:52.435Z,29.80
2018-03-27T23:11:20.481Z,29.17
2018-03-27T23:13:48.897Z,28.17
2018-03-27T23:16:16.470Z,29.97
2018-03-27T23:18:44.696Z,28.27
2018-03-27T23:21:12.282Z,28.50
2018-03-27T23:23:39.820Z,28.60
2018-03-27T23:26:07.398Z,28.67
2018-03-27T23:28:35.716Z,28.77
2018-03-27T23:31:03.380Z,28.60
2018-03-27T23:33:30.968Z,30.50
2018-03-27T23:35:58.507Z,29.50
2018-03-27T23:38:26.047Z,28.63
2018-03-27T23:40:54.105Z,27.67
2018-03-27T23:43:21.645Z,31.13
2018-03-27T23:45:49.948Z,30.60
2018-03-27T23:48:17.515Z,28.80
2018-03-27T23:50:45.044Z,28.87
2018-03-27T23:53:14.276Z,29.27
2018-03-27T23:55:41.840Z,24.63
2018-03-27T23:58:09.386Z,26.33
